sensor_id;sensor_type;location;lat;lon;timestamp;noise_LAeq;noise_LA_min;noise_LA_max;noise_LA01;noise_LA95
66335;Laerm;53138;51.496;6.410;2023-11-21T00:00:01;35.60;33.29;40.07;;
66335;Laerm;53138;51.496;6.410;2023-11-21T00:00:11;35.69;33.32;40.59;;
66335;Laerm;53138;51.496;6.410;2023-11-21T00:00:22;34.34;32.75;36.69;;
66335;Laerm;53138;51.496;6.410;2023-11-21T00:00:33;34.27;32.69;35.98;;
66335;Laerm;53138;51.496;6.410;2023-11-21T00:00:43;34.57;33.16;40.22;;
66335;Laerm;53138;51.496;6.410;2023-11-21T00:00:53;34.39;32.80;38.69;;
66335;Laerm;53138;51.496;6.410;2023-11-21T00:01:03;34.29;32.77;38.09;;
66335;Laerm;53138;51.496;6.410;2023-11-21T00:01:14;34.28;32.67;39.34;;
66335;Laerm;53138;51.496;6.410;2023-11-21T00:01:24;34.38;32.81;38.02;;
66335;Laerm;53138;51.496;6.410;2023-11-21T00:01:35;56.47;33.16;69.32;;
66335;Laerm;53138;51.496;6.410;2023-11-21T00:01:45;58.36;33.80;71.75;;
66335;Laerm;53138;51.496;6.410;2023-11-21T00:01:55;41.22;35.45;46.46;;
66335;Laerm;53138;51.496;6.410;2023-11-21T00:02:07;55.91;33.46;72.24;;
66335;Laerm;53138;51.496;6.410;2023-11-21T00:02:17;35.40;33.68;37.14;;
66335;Laerm;53138;51.496;6.410;2023-11-21T00:02:27;53.13;32.53;68.66;;
66335;Laerm;53138;51.496;6.410;2023-11-21T00:02:38;37.79;33.01;58.78;;
66335;Laerm;53138;51.496;6.410;2023-11-21T00:02:50;34.45;32.68;36.38;;
66335;Laerm;53138;51.496;6.410;2023-11-21T00:03:00;34.41;32.66;36.57;;
66335;Laerm;53138;51.496;6.410;2023-11-21T00:03:10;51.25;32.66;71.93;;
66335;Laerm;53138;51.496;6.410;2023-11-21T00:03:21;56.85;32.48;71.48;;
66335;Laerm;53138;51.496;6.410;2023-11-21T00:03:33;34.40;32.55;45.40;;
66335;Laerm;53138;51.496;6.410;2023-11-21T00:03:44;35.63;32.76;48.42;;
66335;Laerm;53138;51.496;6.410;2023-11-21T00:03:54;49.00;32.36;68.73;;
66335;Laerm;53138;51.496;6.410;2023-11-21T00:04:05;54.58;32.59;67.48;;
66335;Laerm;53138;51.496;6.410;2023-11-21T00:04:17;53.46;32.84;68.73;;
66335;Laerm;53138;51.496;6.410;2023-11-21T00:04:27;39.07;32.77;53.95;;
66335;Laerm;53138;51.496;6.410;2023-11-21T00:04:37;41.04;32.87;57.49;;
66335;Laerm;53138;51.496;6.410;2023-11-21T00:04:48;34.30;32.71;37.16;;
66335;Laerm;53138;51.496;6.410;2023-11-21T00:04:58;35.72;32.55;42.86;;
66335;Laerm;53138;51.496;6.410;2023-11-21T00:05:09;36.43;32.90;46.78;;
66335;Laerm;53138;51.496;6.410;2023-11-21T00:05:19;36.12;32.43;45.44;;
66335;Laerm;53138;51.496;6.410;2023-11-21T00:05:33;35.74;32.48;45.51;;
66335;Laerm;53138;51.496;6.410;2023-11-21T00:05:43;36.46;33.12;43.63;;
66335;Laerm;53138;51.496;6.410;2023-11-21T00:05:53;36.46;33.45;45.30;;
66335;Laerm;53138;51.496;6.410;2023-11-21T00:06:04;36.14;33.59;43.97;;
66335;Laerm;53138;51.496;6.410;2023-11-21T00:06:14;41.78;33.99;46.89;;
66335;Laerm;53138;51.496;6.410;2023-11-21T00:06:25;40.79;35.60;46.71;;
66335;Laerm;53138;51.496;6.410;2023-11-21T00:06:35;37.20;34.43;41.46;;
66335;Laerm;53138;51.496;6.410;2023-11-21T00:06:45;42.26;38.28;47.35;;
66335;Laerm;53138;51.496;6.410;2023-11-21T00:06:57;49.54;35.93;65.15;;
66335;Laerm;53138;51.496;6.410;2023-11-21T00:07:07;46.69;33.47;62.19;;
66335;Laerm;53138;51.496;6.410;2023-11-21T00:07:17;49.94;33.10;67.20;;
66335;Laerm;53138;51.496;6.410;2023-11-21T00:07:27;41.31;33.33;56.66;;
66335;Laerm;53138;51.496;6.410;2023-11-21T00:07:38;39.70;32.81;55.41;;
66335;Laerm;53138;51.496;6.410;2023-11-21T00:07:48;54.84;32.56;70.04;;
66335;Laerm;53138;51.496;6.410;2023-11-21T00:07:58;56.64;33.11;70.24;;
66335;Laerm;53138;51.496;6.410;2023-11-21T00:08:08;49.78;32.72;60.73;;
66335;Laerm;53138;51.496;6.410;2023-11-21T00:08:18;50.55;33.02;62.27;;
66335;Laerm;53138;51.496;6.410;2023-11-21T00:08:29;42.99;32.65;58.16;;
66335;Laerm;53138;51.496;6.410;2023-11-21T00:08:39;39.20;32.75;56.42;;
66335;Laerm;53138;51.496;6.410;2023-11-21T00:08:50;34.81;32.99;38.60;;
66335;Laerm;53138;51.496;6.410;2023-11-21T00:09:00;35.22;33.12;40.53;;
66335;Laerm;53138;51.496;6.410;2023-11-21T00:09:10;34.94;33.15;37.56;;
66335;Laerm;53138;51.496;6.410;2023-11-21T00:09:22;34.41;32.86;37.35;;
66335;Laerm;53138;51.496;6.410;2023-11-21T00:09:33;34.55;33.05;39.23;;
66335;Laerm;53138;51.496;6.410;2023-11-21T00:09:43;34.38;32.78;36.90;;
66335;Laerm;53138;51.496;6.410;2023-11-21T00:09:53;34.20;32.59;37.61;;
66335;Laerm;53138;51.496;6.410;2023-11-21T00:10:06;34.38;32.48;36.89;;
66335;Laerm;53138;51.496;6.410;2023-11-21T00:10:16;34.02;32.07;35.87;;
66335;Laerm;53138;51.496;6.410;2023-11-21T00:10:27;34.17;32.66;35.65;;
66335;Laerm;53138;51.496;6.410;2023-11-21T00:10:38;34.15;32.44;35.75;;
66335;Laerm;53138;51.496;6.410;2023-11-21T00:10:49;34.19;32.59;36.26;;
66335;Laerm;53138;51.496;6.410;2023-11-21T00:10:59;34.23;32.86;35.62;;
66335;Laerm;53138;51.496;6.410;2023-11-21T00:11:10;34.52;32.86;36.55;;
66335;Laerm;53138;51.496;6.410;2023-11-21T00:11:20;34.43;32.83;35.96;;
66335;Laerm;53138;51.496;6.410;2023-11-21T00:11:31;34.26;32.84;36.23;;
66335;Laerm;53138;51.496;6.410;2023-11-21T00:11:41;34.11;32.45;35.81;;
66335;Laerm;53138;51.496;6.410;2023-11-21T00:11:51;34.21;32.61;36.53;;
66335;Laerm;53138;51.496;6.410;2023-11-21T00:12:02;34.15;32.60;35.46;;
66335;Laerm;53138;51.496;6.410;2023-11-21T00:12:13;34.32;32.70;36.77;;
66335;Laerm;53138;51.496;6.410;2023-11-21T00:12:24;34.44;32.54;36.80;;
66335;Laerm;53138;51.496;6.410;2023-11-21T00:12:34;34.39;33.03;35.88;;
66335;Laerm;53138;51.496;6.410;2023-11-21T00:12:45;34.43;32.61;36.19;;
66335;Laerm;53138;51.496;6.410;2023-11-21T00:12:58;34.39;32.47;37.53;;
66335;Laerm;53138;51.496;6.410;2023-11-21T00:13:08;34.51;33.00;37.49;;
66335;Laerm;53138;51.496;6.410;2023-11-21T00:13:18;36.21;33.93;40.14;;
66335;Laerm;53138;51.496;6.410;2023-11-21T00:13:28;37.49;34.24;40.31;;
66335;Laerm;53138;51.496;6.410;2023-11-21T00:13:39;36.62;34.18;40.25;;
66335;Laerm;53138;51.496;6.410;2023-11-21T00:13:49;41.37;35.99;46.71;;
66335;Laerm;53138;51.496;6.410;2023-11-21T00:13:59;41.01;36.73;47.84;;
66335;Laerm;53138;51.496;6.410;2023-11-21T00:14:13;46.15;35.97;59.91;;
66335;Laerm;53138;51.496;6.410;2023-11-21T00:14:25;38.77;35.51;43.83;;
66335;Laerm;53138;51.496;6.410;2023-11-21T00:14:37;37.72;35.70;39.70;;
66335;Laerm;53138;51.496;6.410;2023-11-21T00:14:48;39.18;35.24;42.64;;
66335;Laerm;53138;51.496;6.410;2023-11-21T00:14:59;38.77;35.97;42.47;;
66335;Laerm;53138;51.496;6.410;2023-11-21T00:15:10;36.08;33.85;39.85;;
66335;Laerm;53138;51.496;6.410;2023-11-21T00:15:23;37.08;33.48;44.28;;
66335;Laerm;53138;51.496;6.410;2023-11-21T00:15:33;41.30;36.20;45.73;;
66335;Laerm;53138;51.496;6.410;2023-11-21T00:15:43;37.05;33.95;46.01;;
66335;Laerm;53138;51.496;6.410;2023-11-21T00:15:53;39.03;34.44;43.25;;
66335;Laerm;53138;51.496;6.410;2023-11-21T00:16:04;40.31;37.18;43.26;;
66335;Laerm;53138;51.496;6.410;2023-11-21T00:16:14;37.04;34.70;39.85;;
66335;Laerm;53138;51.496;6.410;2023-11-21T00:16:24;36.09;34.03;41.39;;
66335;Laerm;53138;51.496;6.410;2023-11-21T00:16:35;35.31;33.61;38.41;;
66335;Laerm;53138;51.496;6.410;2023-11-21T00:16:45;34.64;33.01;36.67;;
66335;Laerm;53138;51.496;6.410;2023-11-21T00:16:55;34.59;32.83;37.67;;
66335;Laerm;53138;51.496;6.410;2023-11-21T00:17:06;34.26;32.59;36.46;;
66335;Laerm;53138;51.496;6.410;2023-11-21T00:17:16;34.28;32.35;36.59;;
66335;Laerm;53138;51.496;6.410;2023-11-21T00:17:26;34.29;32.59;38.69;;
66335;Laerm;53138;51.496;6.410;2023-11-21T00:17:37;34.25;32.73;36.95;;
66335;Laerm;53138;51.496;6.410;2023-11-21T00:17:47;34.36;32.70;37.49;;
66335;Laerm;53138;51.496;6.410;2023-11-21T00:17:57;34.33;32.64;37.78;;
66335;Laerm;53138;51.496;6.410;2023-11-21T00:18:08;34.12;31.99;37.09;;
66335;Laerm;53138;51.496;6.410;2023-11-21T00:18:18;34.64;32.59;39.38;;
66335;Laerm;53138;51.496;6.410;2023-11-21T00:18:29;35.02;32.91;39.33;;
66335;Laerm;53138;51.496;6.410;2023-11-21T00:18:39;34.72;33.00;36.76;;
66335;Laerm;53138;51.496;6.410;2023-11-21T00:18:49;34.76;32.90;38.93;;
66335;Laerm;53138;51.496;6.410;2023-11-21T00:19:01;34.64;32.81;38.21;;
66335;Laerm;53138;51.496;6.410;2023-11-21T00:19:11;34.36;32.52;37.40;;
66335;Laerm;53138;51.496;6.410;2023-11-21T00:19:22;34.03;31.97;36.35;;
66335;Laerm;53138;51.496;6.410;2023-11-21T00:19:32;34.25;32.57;37.31;;
66335;Laerm;53138;51.496;6.410;2023-11-21T00:19:43;34.24;32.65;38.33;;
66335;Laerm;53138;51.496;6.410;2023-11-21T00:19:55;34.30;32.66;38.43;;
66335;Laerm;53138;51.496;6.410;2023-11-21T00:20:05;34.32;32.18;37.73;;
66335;Laerm;53138;51.496;6.410;2023-11-21T00:20:17;34.67;32.83;36.17;;
66335;Laerm;53138;51.496;6.410;2023-11-21T00:20:27;34.78;33.11;36.99;;
66335;Laerm;53138;51.496;6.410;2023-11-21T00:20:37;34.80;33.05;37.10;;
66335;Laerm;53138;51.496;6.410;2023-11-21T00:20:47;34.55;32.72;36.84;;
66335;Laerm;53138;51.496;6.410;2023-11-21T00:20:57;34.45;32.42;35.86;;
66335;Laerm;53138;51.496;6.410;2023-11-21T00:21:09;34.50;32.72;36.31;;
66335;Laerm;53138;51.496;6.410;2023-11-21T00:21:19;34.89;33.01;36.79;;
66335;Laerm;53138;51.496;6.410;2023-11-21T00:21:29;35.07;33.00;39.52;;
66335;Laerm;53138;51.496;6.410;2023-11-21T00:21:39;35.68;33.34;37.45;;
66335;Laerm;53138;51.496;6.410;2023-11-21T00:21:50;36.23;34.11;40.79;;
66335;Laerm;53138;51.496;6.410;2023-11-21T00:22:00;35.13;33.27;36.85;;
66335;Laerm;53138;51.496;6.410;2023-11-21T00:22:11;35.05;33.47;37.52;;
66335;Laerm;53138;51.496;6.410;2023-11-21T00:22:21;35.51;33.74;38.87;;
66335;Laerm;53138;51.496;6.410;2023-11-21T00:22:35;37.88;35.49;42.08;;
66335;Laerm;53138;51.496;6.410;2023-11-21T00:22:45;36.79;33.82;40.28;;
66335;Laerm;53138;51.496;6.410;2023-11-21T00:22:56;35.51;33.64;37.61;;
66335;Laerm;53138;51.496;6.410;2023-11-21T00:23:06;34.89;33.13;37.46;;
66335;Laerm;53138;51.496;6.410;2023-11-21T00:23:17;34.61;32.84;38.10;;
66335;Laerm;53138;51.496;6.410;2023-11-21T00:23:28;34.35;32.86;36.78;;
66335;Laerm;53138;51.496;6.410;2023-11-21T00:23:38;34.52;32.80;35.89;;
66335;Laerm;53138;51.496;6.410;2023-11-21T00:23:48;34.59;32.80;36.07;;
66335;Laerm;53138;51.496;6.410;2023-11-21T00:23:58;34.59;33.20;35.77;;
66335;Laerm;53138;51.496;6.410;2023-11-21T00:24:08;34.77;32.65;36.24;;
66335;Laerm;53138;51.496;6.410;2023-11-21T00:24:19;34.53;33.10;36.10;;
66335;Laerm;53138;51.496;6.410;2023-11-21T00:24:29;34.59;33.07;35.74;;
66335;Laerm;53138;51.496;6.410;2023-11-21T00:24:39;34.54;32.80;35.99;;
66335;Laerm;53138;51.496;6.410;2023-11-21T00:24:49;34.78;33.07;36.71;;
66335;Laerm;53138;51.496;6.410;2023-11-21T00:25:00;35.16;33.85;36.75;;
66335;Laerm;53138;51.496;6.410;2023-11-21T00:25:11;34.70;32.84;36.54;;
66335;Laerm;53138;51.496;6.410;2023-11-21T00:25:21;34.48;33.22;36.70;;
66335;Laerm;53138;51.496;6.410;2023-11-21T00:25:32;34.58;32.63;36.43;;
66335;Laerm;53138;51.496;6.410;2023-11-21T00:25:42;35.03;33.18;37.68;;
66335;Laerm;53138;51.496;6.410;2023-11-21T00:25:52;35.26;33.45;38.35;;
66335;Laerm;53138;51.496;6.410;2023-11-21T00:26:02;35.59;33.68;37.77;;
66335;Laerm;53138;51.496;6.410;2023-11-21T00:26:14;36.75;33.85;40.00;;
66335;Laerm;53138;51.496;6.410;2023-11-21T00:26:24;35.48;33.48;37.93;;
66335;Laerm;53138;51.496;6.410;2023-11-21T00:26:34;34.71;32.22;36.73;;
66335;Laerm;53138;51.496;6.410;2023-11-21T00:26:47;34.82;33.27;37.48;;
66335;Laerm;53138;51.496;6.410;2023-11-21T00:26:58;34.86;32.98;36.67;;
66335;Laerm;53138;51.496;6.410;2023-11-21T00:27:08;34.59;33.07;36.93;;
66335;Laerm;53138;51.496;6.410;2023-11-21T00:27:18;34.43;32.81;37.68;;
66335;Laerm;53138;51.496;6.410;2023-11-21T00:27:29;34.47;32.77;40.27;;
66335;Laerm;53138;51.496;6.410;2023-11-21T00:27:39;34.33;33.00;36.55;;
66335;Laerm;53138;51.496;6.410;2023-11-21T00:27:49;34.30;32.81;37.25;;
66335;Laerm;53138;51.496;6.410;2023-11-21T00:28:00;34.72;32.66;36.10;;
66335;Laerm;53138;51.496;6.410;2023-11-21T00:28:11;34.99;33.39;36.90;;
66335;Laerm;53138;51.496;6.410;2023-11-21T00:28:21;34.66;32.92;37.63;;
66335;Laerm;53138;51.496;6.410;2023-11-21T00:28:32;34.34;32.86;36.45;;
66335;Laerm;53138;51.496;6.410;2023-11-21T00:28:42;34.27;32.90;36.63;;
66335;Laerm;53138;51.496;6.410;2023-11-21T00:28:53;34.52;32.99;36.53;;
66335;Laerm;53138;51.496;6.410;2023-11-21T00:29:03;34.33;32.66;36.03;;
66335;Laerm;53138;51.496;6.410;2023-11-21T00:29:13;36.50;33.27;41.16;;
66335;Laerm;53138;51.496;6.410;2023-11-21T00:29:23;45.38;38.57;50.88;;
66335;Laerm;53138;51.496;6.410;2023-11-21T00:29:34;39.41;36.20;45.67;;
66335;Laerm;53138;51.496;6.410;2023-11-21T00:29:44;36.86;34.75;39.04;;
66335;Laerm;53138;51.496;6.410;2023-11-21T00:29:54;40.78;34.62;47.51;;
66335;Laerm;53138;51.496;6.410;2023-11-21T00:30:05;43.33;38.10;48.13;;
66335;Laerm;53138;51.496;6.410;2023-11-21T00:30:16;37.27;34.07;41.90;;
66335;Laerm;53138;51.496;6.410;2023-11-21T00:30:27;35.87;33.70;38.21;;
66335;Laerm;53138;51.496;6.410;2023-11-21T00:30:37;36.55;33.88;40.06;;
66335;Laerm;53138;51.496;6.410;2023-11-21T00:30:48;35.08;32.92;36.73;;
66335;Laerm;53138;51.496;6.410;2023-11-21T00:30:58;34.68;32.86;37.73;;
66335;Laerm;53138;51.496;6.410;2023-11-21T00:31:08;34.20;32.80;35.60;;
66335;Laerm;53138;51.496;6.410;2023-11-21T00:31:18;34.29;32.84;35.94;;
66335;Laerm;53138;51.496;6.410;2023-11-21T00:31:28;34.23;32.56;35.76;;
66335;Laerm;53138;51.496;6.410;2023-11-21T00:31:40;34.24;32.79;36.11;;
66335;Laerm;53138;51.496;6.410;2023-11-21T00:31:51;34.48;32.78;39.34;;
66335;Laerm;53138;51.496;6.410;2023-11-21T00:32:01;34.34;32.68;36.45;;
66335;Laerm;53138;51.496;6.410;2023-11-21T00:32:11;34.35;32.70;36.54;;
66335;Laerm;53138;51.496;6.410;2023-11-21T00:32:22;34.44;32.65;36.51;;
66335;Laerm;53138;51.496;6.410;2023-11-21T00:32:32;34.43;32.77;36.57;;
66335;Laerm;53138;51.496;6.410;2023-11-21T00:32:42;34.84;33.47;37.99;;
66335;Laerm;53138;51.496;6.410;2023-11-21T00:32:54;34.61;32.91;36.91;;
66335;Laerm;53138;51.496;6.410;2023-11-21T00:33:04;34.44;32.62;36.27;;
66335;Laerm;53138;51.496;6.410;2023-11-21T00:33:14;34.72;32.93;36.40;;
66335;Laerm;53138;51.496;6.410;2023-11-21T00:33:24;36.34;33.76;39.07;;
66335;Laerm;53138;51.496;6.410;2023-11-21T00:33:35;36.73;33.51;40.65;;
66335;Laerm;53138;51.496;6.410;2023-11-21T00:33:45;36.88;34.09;40.83;;
66335;Laerm;53138;51.496;6.410;2023-11-21T00:33:56;34.87;33.15;43.04;;
66335;Laerm;53138;51.496;6.410;2023-11-21T00:34:06;34.50;32.81;36.40;;
66335;Laerm;53138;51.496;6.410;2023-11-21T00:34:16;34.43;32.84;35.93;;
66335;Laerm;53138;51.496;6.410;2023-11-21T00:34:27;34.50;32.85;36.91;;
66335;Laerm;53138;51.496;6.410;2023-11-21T00:34:37;35.19;33.31;43.64;;
66335;Laerm;53138;51.496;6.410;2023-11-21T00:34:47;34.96;33.29;36.79;;
66335;Laerm;53138;51.496;6.410;2023-11-21T00:34:57;34.72;33.25;36.74;;
66335;Laerm;53138;51.496;6.410;2023-11-21T00:35:09;34.44;32.57;36.55;;
66335;Laerm;53138;51.496;6.410;2023-11-21T00:35:20;34.78;33.00;37.13;;
66335;Laerm;53138;51.496;6.410;2023-11-21T00:35:30;35.48;33.91;38.53;;
66335;Laerm;53138;51.496;6.410;2023-11-21T00:35:40;35.49;33.01;38.80;;
66335;Laerm;53138;51.496;6.410;2023-11-21T00:35:50;34.68;32.98;37.30;;
66335;Laerm;53138;51.496;6.410;2023-11-21T00:36:01;34.49;32.93;37.92;;
66335;Laerm;53138;51.496;6.410;2023-11-21T00:36:11;34.42;33.14;36.24;;
66335;Laerm;53138;51.496;6.410;2023-11-21T00:36:21;34.44;32.10;39.68;;
66335;Laerm;53138;51.496;6.410;2023-11-21T00:36:31;34.78;32.94;36.71;;
66335;Laerm;53138;51.496;6.410;2023-11-21T00:36:42;35.65;32.98;42.06;;
66335;Laerm;53138;51.496;6.410;2023-11-21T00:36:52;36.68;33.65;41.54;;
66335;Laerm;53138;51.496;6.410;2023-11-21T00:37:02;36.22;34.07;41.94;;
66335;Laerm;53138;51.496;6.410;2023-11-21T00:37:13;39.18;35.45;42.67;;
66335;Laerm;53138;51.496;6.410;2023-11-21T00:37:24;37.91;34.96;44.99;;
66335;Laerm;53138;51.496;6.410;2023-11-21T00:37:34;35.88;33.23;38.64;;
66335;Laerm;53138;51.496;6.410;2023-11-21T00:37:45;35.15;33.37;38.19;;
66335;Laerm;53138;51.496;6.410;2023-11-21T00:37:55;34.81;32.74;37.83;;
66335;Laerm;53138;51.496;6.410;2023-11-21T00:38:06;34.90;32.98;37.32;;
66335;Laerm;53138;51.496;6.410;2023-11-21T00:38:18;34.63;32.94;36.79;;
66335;Laerm;53138;51.496;6.410;2023-11-21T00:38:30;34.60;32.19;39.68;;
66335;Laerm;53138;51.496;6.410;2023-11-21T00:38:40;34.33;32.30;35.85;;
66335;Laerm;53138;51.496;6.410;2023-11-21T00:38:50;34.49;33.13;36.22;;
66335;Laerm;53138;51.496;6.410;2023-11-21T00:39:00;34.39;32.38;36.35;;
66335;Laerm;53138;51.496;6.410;2023-11-21T00:39:13;34.41;32.61;35.95;;
66335;Laerm;53138;51.496;6.410;2023-11-21T00:39:23;34.78;33.00;36.23;;
66335;Laerm;53138;51.496;6.410;2023-11-21T00:39:34;34.82;33.05;38.97;;
66335;Laerm;53138;51.496;6.410;2023-11-21T00:39:45;34.64;32.95;37.58;;
66335;Laerm;53138;51.496;6.410;2023-11-21T00:39:55;34.45;32.93;37.30;;
66335;Laerm;53138;51.496;6.410;2023-11-21T00:40:06;34.34;32.85;35.93;;
66335;Laerm;53138;51.496;6.410;2023-11-21T00:40:16;34.57;32.93;36.24;;
66335;Laerm;53138;51.496;6.410;2023-11-21T00:40:29;34.72;33.08;36.77;;
66335;Laerm;53138;51.496;6.410;2023-11-21T00:40:39;34.46;32.90;35.85;;
66335;Laerm;53138;51.496;6.410;2023-11-21T00:40:50;34.41;32.67;36.21;;
66335;Laerm;53138;51.496;6.410;2023-11-21T00:41:00;34.60;33.03;37.01;;
66335;Laerm;53138;51.496;6.410;2023-11-21T00:41:10;34.66;33.17;39.33;;
66335;Laerm;53138;51.496;6.410;2023-11-21T00:41:20;34.71;33.11;38.32;;
66335;Laerm;53138;51.496;6.410;2023-11-21T00:41:30;34.78;33.29;36.22;;
66335;Laerm;53138;51.496;6.410;2023-11-21T00:41:49;35.92;33.76;39.86;;
66335;Laerm;53138;51.496;6.410;2023-11-21T00:41:59;34.94;33.33;37.27;;
66335;Laerm;53138;51.496;6.410;2023-11-21T00:42:09;34.46;32.90;36.61;;
66335;Laerm;53138;51.496;6.410;2023-11-21T00:42:20;34.33;32.74;37.81;;
66335;Laerm;53138;51.496;6.410;2023-11-21T00:42:31;49.81;33.12;64.40;;
66335;Laerm;53138;51.496;6.410;2023-11-21T00:42:44;51.13;32.88;67.73;;
66335;Laerm;53138;51.496;6.410;2023-11-21T00:42:55;55.02;32.82;69.08;;
66335;Laerm;53138;51.496;6.410;2023-11-21T00:43:06;35.09;32.85;45.84;;
66335;Laerm;53138;51.496;6.410;2023-11-21T00:43:16;55.14;32.99;68.80;;
66335;Laerm;53138;51.496;6.410;2023-11-21T00:43:26;48.80;32.87;66.44;;
66335;Laerm;53138;51.496;6.410;2023-11-21T00:43:36;51.83;33.15;67.83;;
66335;Laerm;53138;51.496;6.410;2023-11-21T00:43:46;38.81;32.86;56.70;;
66335;Laerm;53138;51.496;6.410;2023-11-21T00:43:57;34.53;32.95;38.50;;
66335;Laerm;53138;51.496;6.410;2023-11-21T00:44:07;35.46;32.75;47.81;;
66335;Laerm;53138;51.496;6.410;2023-11-21T00:44:17;34.29;32.79;37.08;;
66335;Laerm;53138;51.496;6.410;2023-11-21T00:44:27;34.35;32.65;35.92;;
66335;Laerm;53138;51.496;6.410;2023-11-21T00:44:38;35.50;33.07;47.09;;
66335;Laerm;53138;51.496;6.410;2023-11-21T00:44:49;35.86;33.03;52.64;;
66335;Laerm;53138;51.496;6.410;2023-11-21T00:44:59;38.15;33.09;48.19;;
66335;Laerm;53138;51.496;6.410;2023-11-21T00:45:09;35.60;32.92;43.65;;
66335;Laerm;53138;51.496;6.410;2023-11-21T00:45:20;34.90;33.05;41.13;;
66335;Laerm;53138;51.496;6.410;2023-11-21T00:45:30;34.84;33.04;38.83;;
66335;Laerm;53138;51.496;6.410;2023-11-21T00:45:40;35.25;32.89;40.68;;
66335;Laerm;53138;51.496;6.410;2023-11-21T00:45:51;34.37;32.90;35.86;;
66335;Laerm;53138;51.496;6.410;2023-11-21T00:46:04;34.51;33.02;36.22;;
66335;Laerm;53138;51.496;6.410;2023-11-21T00:46:14;34.58;32.76;36.09;;
66335;Laerm;53138;51.496;6.410;2023-11-21T00:46:24;34.42;33.01;36.52;;
66335;Laerm;53138;51.496;6.410;2023-11-21T00:46:37;34.32;32.57;36.00;;
66335;Laerm;53138;51.496;6.410;2023-11-21T00:46:47;34.26;32.66;36.73;;
66335;Laerm;53138;51.496;6.410;2023-11-21T00:46:57;34.32;32.84;35.75;;
66335;Laerm;53138;51.496;6.410;2023-11-21T00:47:07;34.43;32.70;38.21;;
66335;Laerm;53138;51.496;6.410;2023-11-21T00:47:18;34.65;32.93;37.60;;
66335;Laerm;53138;51.496;6.410;2023-11-21T00:47:28;34.73;32.42;38.73;;
66335;Laerm;53138;51.496;6.410;2023-11-21T00:47:38;34.67;32.99;36.26;;
66335;Laerm;53138;51.496;6.410;2023-11-21T00:47:48;35.01;33.19;37.27;;
66335;Laerm;53138;51.496;6.410;2023-11-21T00:47:59;35.29;33.64;37.60;;
66335;Laerm;53138;51.496;6.410;2023-11-21T00:48:09;35.16;33.14;40.14;;
66335;Laerm;53138;51.496;6.410;2023-11-21T00:48:19;34.52;32.95;36.92;;
66335;Laerm;53138;51.496;6.410;2023-11-21T00:48:29;34.46;32.25;39.29;;
66335;Laerm;53138;51.496;6.410;2023-11-21T00:48:39;34.48;32.74;36.51;;
66335;Laerm;53138;51.496;6.410;2023-11-21T00:48:50;34.53;32.79;36.85;;
66335;Laerm;53138;51.496;6.410;2023-11-21T00:49:00;34.40;33.11;37.12;;
66335;Laerm;53138;51.496;6.410;2023-11-21T00:49:10;34.37;32.75;36.15;;
66335;Laerm;53138;51.496;6.410;2023-11-21T00:49:20;34.48;33.04;36.57;;
66335;Laerm;53138;51.496;6.410;2023-11-21T00:49:31;34.74;33.42;36.26;;
66335;Laerm;53138;51.496;6.410;2023-11-21T00:49:42;34.54;32.98;37.87;;
66335;Laerm;53138;51.496;6.410;2023-11-21T00:49:53;34.42;32.90;38.47;;
66335;Laerm;53138;51.496;6.410;2023-11-21T00:50:04;34.35;32.69;38.51;;
66335;Laerm;53138;51.496;6.410;2023-11-21T00:50:16;34.74;32.84;36.78;;
66335;Laerm;53138;51.496;6.410;2023-11-21T00:50:26;34.65;33.07;36.29;;
66335;Laerm;53138;51.496;6.410;2023-11-21T00:50:37;34.43;33.16;36.34;;
66335;Laerm;53138;51.496;6.410;2023-11-21T00:50:47;34.61;33.07;36.42;;
66335;Laerm;53138;51.496;6.410;2023-11-21T00:50:57;34.72;33.29;36.60;;
66335;Laerm;53138;51.496;6.410;2023-11-21T00:51:07;34.52;33.17;35.95;;
66335;Laerm;53138;51.496;6.410;2023-11-21T00:51:18;34.50;32.56;36.40;;
66335;Laerm;53138;51.496;6.410;2023-11-21T00:51:28;34.30;32.67;36.86;;
66335;Laerm;53138;51.496;6.410;2023-11-21T00:51:38;34.42;32.71;35.95;;
66335;Laerm;53138;51.496;6.410;2023-11-21T00:51:48;34.40;33.02;35.76;;
66335;Laerm;53138;51.496;6.410;2023-11-21T00:51:59;34.55;32.72;37.48;;
66335;Laerm;53138;51.496;6.410;2023-11-21T00:52:09;34.41;33.01;36.13;;
66335;Laerm;53138;51.496;6.410;2023-11-21T00:52:19;34.42;32.75;36.68;;
66335;Laerm;53138;51.496;6.410;2023-11-21T00:52:30;34.38;32.67;36.15;;
66335;Laerm;53138;51.496;6.410;2023-11-21T00:52:40;34.51;32.63;39.28;;
66335;Laerm;53138;51.496;6.410;2023-11-21T00:52:50;34.62;32.89;39.72;;
66335;Laerm;53138;51.496;6.410;2023-11-21T00:53:01;34.39;32.52;39.85;;
66335;Laerm;53138;51.496;6.410;2023-11-21T00:53:12;34.31;33.04;37.70;;
66335;Laerm;53138;51.496;6.410;2023-11-21T00:53:22;34.43;32.58;36.56;;
66335;Laerm;53138;51.496;6.410;2023-11-21T00:53:33;34.26;32.77;36.43;;
66335;Laerm;53138;51.496;6.410;2023-11-21T00:53:43;34.29;32.92;35.74;;
66335;Laerm;53138;51.496;6.410;2023-11-21T00:53:53;34.54;32.55;35.88;;
66335;Laerm;53138;51.496;6.410;2023-11-21T00:54:03;34.72;32.98;36.92;;
66335;Laerm;53138;51.496;6.410;2023-11-21T00:54:14;34.66;33.13;37.06;;
66335;Laerm;53138;51.496;6.410;2023-11-21T00:54:27;34.65;32.89;36.43;;
66335;Laerm;53138;51.496;6.410;2023-11-21T00:54:37;35.11;33.49;38.85;;
66335;Laerm;53138;51.496;6.410;2023-11-21T00:54:48;34.62;33.10;36.40;;
66335;Laerm;53138;51.496;6.410;2023-11-21T00:54:58;34.45;33.03;37.44;;
66335;Laerm;53138;51.496;6.410;2023-11-21T00:55:10;34.45;32.77;36.00;;
66335;Laerm;53138;51.496;6.410;2023-11-21T00:55:22;34.68;33.10;36.68;;
66335;Laerm;53138;51.496;6.410;2023-11-21T00:55:32;36.21;33.21;39.24;;
66335;Laerm;53138;51.496;6.410;2023-11-21T00:55:43;35.90;33.34;39.08;;
66335;Laerm;53138;51.496;6.410;2023-11-21T00:55:53;34.60;33.07;36.42;;
66335;Laerm;53138;51.496;6.410;2023-11-21T00:56:07;34.83;32.84;37.28;;
66335;Laerm;53138;51.496;6.410;2023-11-21T00:56:18;38.70;34.01;42.95;;
66335;Laerm;53138;51.496;6.410;2023-11-21T00:56:28;39.66;35.67;42.53;;
66335;Laerm;53138;51.496;6.410;2023-11-21T00:56:38;37.78;35.55;40.36;;
66335;Laerm;53138;51.496;6.410;2023-11-21T00:56:50;36.13;33.51;39.81;;
66335;Laerm;53138;51.496;6.410;2023-11-21T00:57:00;34.96;33.29;36.39;;
66335;Laerm;53138;51.496;6.410;2023-11-21T00:57:11;36.23;33.68;39.69;;
66335;Laerm;53138;51.496;6.410;2023-11-21T00:57:22;35.81;33.65;37.47;;
66335;Laerm;53138;51.496;6.410;2023-11-21T00:57:32;35.25;33.81;37.44;;
66335;Laerm;53138;51.496;6.410;2023-11-21T00:57:42;35.95;34.32;37.84;;
66335;Laerm;53138;51.496;6.410;2023-11-21T00:57:52;34.99;33.16;36.63;;
66335;Laerm;53138;51.496;6.410;2023-11-21T00:58:02;35.16;33.23;39.24;;
66335;Laerm;53138;51.496;6.410;2023-11-21T00:58:14;36.44;34.66;39.14;;
66335;Laerm;53138;51.496;6.410;2023-11-21T00:58:24;36.75;33.98;42.03;;
66335;Laerm;53138;51.496;6.410;2023-11-21T00:58:35;34.69;33.00;36.19;;
66335;Laerm;53138;51.496;6.410;2023-11-21T00:58:45;34.84;32.60;36.15;;
66335;Laerm;53138;51.496;6.410;2023-11-21T00:58:59;34.69;33.01;42.47;;
66335;Laerm;53138;51.496;6.410;2023-11-21T00:59:10;34.70;33.15;40.33;;
66335;Laerm;53138;51.496;6.410;2023-11-21T00:59:21;37.02;32.93;41.44;;